IGO1157 VABB-VNKT
Flight info
| Callsign | IGO1157 |
|---|---|
| Flight time | N/A |
| Altitude | 35000 |
| Route | ALBAP2B KAKPO Z4 BPL G590 OMUPA DCT SIMRA SMRA1D |
| Aircraft | A320/M-SDE3FGHIRWY/LB1 |
Departure
| Time | N/A |
|---|---|
| Airport | Chhatrapati Shivaji Maharaj International Airport (VABB) |
Arrival
| Time | 2026-05-08 06:30 |
|---|---|
| Airport | Tribhuvan International Airport (VNKT) |
| Time | Latitude | Longitude | Altitude | Speed | Heading |
|---|---|---|---|---|---|
| 2026-05-08 05:51 | 25.05711 | 81.05193 | 34923 ft | 539 kts | 74° |
| 2026-05-08 05:51 | 25.06586 | 81.09215 | 34924 ft | 539 kts | 75° |
| 2026-05-08 05:52 | 25.08334 | 81.17254 | 34921 ft | 539 kts | 74° |
| 2026-05-08 05:52 | 25.10089 | 81.25282 | 34926 ft | 538 kts | 75° |
| 2026-05-08 05:53 | 25.11835 | 81.33324 | 34933 ft | 538 kts | 75° |
| 2026-05-08 05:53 | 25.13582 | 81.41412 | 34930 ft | 538 kts | 75° |
| 2026-05-08 05:54 | 25.15332 | 81.49442 | 34933 ft | 538 kts | 74° |
| 2026-05-08 05:54 | 25.17173 | 81.57441 | 34930 ft | 538 kts | 74° |
| 2026-05-08 05:55 | 25.19047 | 81.65439 | 34925 ft | 538 kts | 74° |
| 2026-05-08 05:55 | 25.20893 | 81.73461 | 34927 ft | 539 kts | 74° |
| 2026-05-08 05:56 | 25.22710 | 81.81489 | 34931 ft | 539 kts | 75° |
| 2026-05-08 05:56 | 25.24519 | 81.89526 | 34931 ft | 539 kts | 75° |
| 2026-05-08 05:57 | 25.26336 | 81.97570 | 34932 ft | 540 kts | 75° |
| 2026-05-08 05:57 | 25.28153 | 82.05606 | 34928 ft | 540 kts | 75° |
| 2026-05-08 05:58 | 25.29981 | 82.13725 | 34928 ft | 540 kts | 75° |
| 2026-05-08 05:58 | 25.31782 | 82.21737 | 34937 ft | 541 kts | 75° |
| 2026-05-08 05:59 | 25.33589 | 82.29858 | 34929 ft | 541 kts | 76° |
| 2026-05-08 05:59 | 25.35313 | 82.37952 | 34930 ft | 541 kts | 76° |
| 2026-05-08 06:00 | 25.37003 | 82.46063 | 34920 ft | 542 kts | 76° |
| 2026-05-08 06:00 | 25.38712 | 82.54175 | 34924 ft | 542 kts | 76° |
| 2026-05-08 06:01 | 25.40442 | 82.62299 | 34921 ft | 542 kts | 76° |
| 2026-05-08 06:01 | 25.42173 | 82.70429 | 34912 ft | 544 kts | 76° |
| 2026-05-08 06:02 | 25.43891 | 82.78581 | 34912 ft | 544 kts | 76° |
| 2026-05-08 06:02 | 25.46516 | 82.86381 | 34912 ft | 541 kts | 58° |
| 2026-05-08 06:03 | 25.50992 | 82.92983 | 34906 ft | 535 kts | 45° |
| 2026-05-08 06:03 | 25.55907 | 82.99182 | 34917 ft | 536 kts | 45° |
| 2026-05-08 06:04 | 25.60809 | 83.05428 | 34924 ft | 537 kts | 45° |
| 2026-05-08 06:04 | 25.65710 | 83.11676 | 34925 ft | 537 kts | 45° |
| 2026-05-08 06:05 | 25.70658 | 83.17974 | 34930 ft | 538 kts | 45° |
| 2026-05-08 06:05 | 25.75603 | 83.24273 | 34933 ft | 539 kts | 45° |
| 2026-05-08 06:06 | 25.80532 | 83.30560 | 34936 ft | 539 kts | 45° |
| 2026-05-08 06:06 | 25.85501 | 83.36784 | 34945 ft | 539 kts | 45° |
| 2026-05-08 06:07 | 25.90511 | 83.42972 | 34939 ft | 539 kts | 45° |
| 2026-05-08 06:07 | 25.95510 | 83.49173 | 34934 ft | 538 kts | 45° |
| 2026-05-08 06:08 | 26.00482 | 83.55392 | 34936 ft | 538 kts | 45° |
| 2026-05-08 06:08 | 26.05443 | 83.61607 | 34948 ft | 537 kts | 45° |
| 2026-05-08 06:09 | 26.09612 | 83.66720 | 34951 ft | 536 kts | 44° |
| 2026-05-08 06:09 | 26.14649 | 83.72828 | 34954 ft | 536 kts | 44° |
| 2026-05-08 06:10 | 26.19674 | 83.78960 | 34948 ft | 536 kts | 44° |
| 2026-05-08 06:10 | 26.24656 | 83.85097 | 34661 ft | 520 kts | 44° |
| 2026-05-08 06:10 | 26.27028 | 83.88031 | 34450 ft | 516 kts | 44° |
| 2026-05-08 06:11 | 26.29466 | 83.91037 | 34220 ft | 517 kts | 44° |
| 2026-05-08 06:11 | 26.31880 | 83.94009 | 34004 ft | 517 kts | 44° |
| 2026-05-08 06:11 | 26.34301 | 83.96987 | 33763 ft | 517 kts | 44° |
| 2026-05-08 06:11 | 26.36714 | 83.99957 | 33508 ft | 516 kts | 44° |
| 2026-05-08 06:12 | 26.39120 | 84.02922 | 33252 ft | 515 kts | 45° |
| 2026-05-08 06:12 | 26.41550 | 84.05918 | 32999 ft | 512 kts | 45° |
| 2026-05-08 06:12 | 26.43930 | 84.08861 | 32752 ft | 509 kts | 45° |
| 2026-05-08 06:12 | 26.46283 | 84.11779 | 32505 ft | 504 kts | 45° |
| 2026-05-08 06:13 | 26.48620 | 84.14678 | 32150 ft | 499 kts | 45° |
| 2026-05-08 06:13 | 26.50940 | 84.17554 | 31539 ft | 497 kts | 45° |
| 2026-05-08 06:13 | 26.53244 | 84.20405 | 30950 ft | 494 kts | 46° |
| 2026-05-08 06:13 | 26.55538 | 84.23245 | 30360 ft | 490 kts | 46° |
| 2026-05-08 06:14 | 26.57813 | 84.26063 | 29724 ft | 487 kts | 46° |
| 2026-05-08 06:14 | 26.60069 | 84.28859 | 29129 ft | 481 kts | 46° |
| 2026-05-08 06:14 | 26.62292 | 84.31618 | 28553 ft | 475 kts | 46° |
| 2026-05-08 06:14 | 26.64491 | 84.34352 | 27985 ft | 470 kts | 46° |
| 2026-05-08 06:15 | 26.66697 | 84.37094 | 27421 ft | 465 kts | 46° |
| 2026-05-08 06:15 | 26.68844 | 84.39766 | 26871 ft | 460 kts | 46° |
| 2026-05-08 06:15 | 26.70973 | 84.42419 | 26344 ft | 455 kts | 46° |
| 2026-05-08 06:15 | 26.72975 | 84.44914 | 25846 ft | 452 kts | 46° |
| 2026-05-08 06:16 | 26.75060 | 84.47511 | 25344 ft | 447 kts | 46° |
| 2026-05-08 06:16 | 26.77128 | 84.50092 | 24842 ft | 443 kts | 46° |
| 2026-05-08 06:16 | 26.79170 | 84.52646 | 24358 ft | 439 kts | 46° |
| 2026-05-08 06:16 | 26.81199 | 84.55187 | 23885 ft | 436 kts | 46° |
| 2026-05-08 06:17 | 26.85245 | 84.60244 | 22869 ft | 429 kts | 46° |
| 2026-05-08 06:17 | 26.87225 | 84.62721 | 22397 ft | 425 kts | 46° |
| 2026-05-08 06:17 | 26.89188 | 84.65179 | 21911 ft | 422 kts | 46° |
| 2026-05-08 06:18 | 26.91136 | 84.67621 | 21418 ft | 419 kts | 46° |
| 2026-05-08 06:18 | 26.93075 | 84.70053 | 20917 ft | 418 kts | 46° |
| 2026-05-08 06:18 | 26.95006 | 84.72475 | 20408 ft | 416 kts | 46° |
| 2026-05-08 06:18 | 26.96929 | 84.74884 | 19989 ft | 412 kts | 46° |
| 2026-05-08 06:19 | 26.98839 | 84.77277 | 19469 ft | 411 kts | 46° |
| 2026-05-08 06:19 | 27.00736 | 84.79649 | 19014 ft | 408 kts | 46° |
| 2026-05-08 06:19 | 27.02651 | 84.81974 | 18610 ft | 403 kts | 45° |
| 2026-05-08 06:19 | 27.04570 | 84.84252 | 18057 ft | 400 kts | 45° |
| 2026-05-08 06:20 | 27.06456 | 84.86460 | 17511 ft | 384 kts | 45° |
| 2026-05-08 06:20 | 27.08288 | 84.88597 | 17064 ft | 367 kts | 45° |
| 2026-05-08 06:20 | 27.10015 | 84.90625 | 16660 ft | 351 kts | 46° |
| 2026-05-08 06:20 | 27.11587 | 84.92598 | 16559 ft | 330 kts | 48° |
| 2026-05-08 06:21 | 27.13092 | 84.94612 | 16509 ft | 340 kts | 50° |
| 2026-05-08 06:21 | 27.14585 | 84.96671 | 16434 ft | 340 kts | 50° |
| 2026-05-08 06:21 | 27.16067 | 84.98732 | 16370 ft | 339 kts | 50° |
| 2026-05-08 06:21 | 27.17549 | 85.00791 | 16289 ft | 339 kts | 50° |
| 2026-05-08 06:22 | 27.19023 | 85.02825 | 16216 ft | 338 kts | 50° |
| 2026-05-08 06:22 | 27.20512 | 85.04867 | 16151 ft | 337 kts | 49° |
| 2026-05-08 06:22 | 27.22002 | 85.06900 | 16038 ft | 337 kts | 49° |
| 2026-05-08 06:22 | 27.23493 | 85.08925 | 15662 ft | 336 kts | 50° |
| 2026-05-08 06:23 | 27.24701 | 85.10569 | 15315 ft | 336 kts | 50° |
| 2026-05-08 06:23 | 27.26184 | 85.12597 | 14873 ft | 336 kts | 50° |
| 2026-05-08 06:23 | 27.27670 | 85.14624 | 14443 ft | 337 kts | 50° |
| 2026-05-08 06:23 | 27.29241 | 85.16628 | 14011 ft | 335 kts | 43° |
| 2026-05-08 06:24 | 27.31072 | 85.18234 | 13563 ft | 334 kts | 31° |
| 2026-05-08 06:24 | 27.33145 | 85.19386 | 13131 ft | 332 kts | 21° |
| 2026-05-08 06:24 | 27.35292 | 85.20341 | 12593 ft | 333 kts | 22° |
| 2026-05-08 06:25 | 27.37061 | 85.21139 | 12228 ft | 332 kts | 22° |
| 2026-05-08 06:25 | 27.39220 | 85.22124 | 11788 ft | 330 kts | 22° |
| 2026-05-08 06:25 | 27.41344 | 85.23092 | 11379 ft | 328 kts | 22° |
| 2026-05-08 06:25 | 27.43488 | 85.24065 | 10584 ft | 338 kts | 22° |
| 2026-05-08 06:26 | 27.45679 | 85.25054 | 10141 ft | 336 kts | 23° |
| 2026-05-08 06:26 | 27.47792 | 85.26001 | 9999 ft | 325 kts | 22° |
| 2026-05-08 06:26 | 27.49853 | 85.26923 | 9818 ft | 315 kts | 22° |
| 2026-05-08 06:26 | 27.51929 | 85.27858 | 9192 ft | 314 kts | 22° |
| 2026-05-08 06:27 | 27.53917 | 85.28751 | 8996 ft | 301 kts | 23° |
| 2026-05-08 06:27 | 27.55816 | 85.29611 | 8868 ft | 286 kts | 23° |
| 2026-05-08 06:27 | 27.57585 | 85.30415 | 8699 ft | 262 kts | 23° |
| 2026-05-08 06:27 | 27.59248 | 85.31171 | 8113 ft | 257 kts | 23° |
| 2026-05-08 06:28 | 27.60864 | 85.31905 | 7461 ft | 237 kts | 22° |
| 2026-05-08 06:28 | 27.62311 | 85.32562 | 6937 ft | 211 kts | 22° |
| 2026-05-08 06:28 | 27.63601 | 85.33148 | 6435 ft | 191 kts | 22° |
| 2026-05-08 06:28 | 27.64798 | 85.33686 | 5956 ft | 180 kts | 22° |
| 2026-05-08 06:29 | 27.65789 | 85.34131 | 5382 ft | 180 kts | 22° |
| 2026-05-08 06:29 | 27.66923 | 85.34672 | 4840 ft | 169 kts | 25° |
| 2026-05-08 06:29 | 27.67989 | 85.35159 | 4444 ft | 160 kts | 24° |
| 2026-05-08 06:29 | 27.68945 | 85.35600 | 4343 ft | 136 kts | 22° |
| 2026-05-08 06:30 | 27.69596 | 85.35894 | 4377 ft | 73 kts | 24° |
| 2026-05-08 06:30 | 27.69884 | 85.36005 | 4366 ft | 6 kts | 337° |
| 2026-05-08 06:30 | 27.69897 | 85.35964 | 4364 ft | 0 kts | 284° |
| 2026-05-08 06:30 | 27.69898 | 85.35961 | 4367 ft | 1 kts | 286° |
| 2026-05-08 06:31 | 27.69898 | 85.35960 | 4368 ft | 1 kts | 286° |
| 2026-05-08 06:31 | 27.69901 | 85.35950 | 4369 ft | 2 kts | 287° |
| 2026-05-08 06:31 | 27.69899 | 85.35925 | 4376 ft | 5 kts | 249° |
| 2026-05-08 06:31 | 27.69854 | 85.35891 | 4376 ft | 11 kts | 201° |
| 2026-05-08 06:32 | 27.69784 | 85.35853 | 4376 ft | 1 kts | 228° |
| 2026-05-08 06:32 | 27.69785 | 85.35850 | 4374 ft | 0 kts | 260° |
| 2026-05-08 06:32 | 27.69794 | 85.35824 | 4373 ft | 7 kts | 291° |
| 2026-05-08 06:32 | 27.69813 | 85.35769 | 4362 ft | 1 kts | 292° |
| 2026-05-08 06:33 | 27.69815 | 85.35765 | 4364 ft | 0 kts | 291° |